sensor_id;sensor_type;location;lat;lon;timestamp;pressure;altitude;pressure_sealevel;temperature;humidity
4576;BME280;2300;51.874;8.430;2023-03-14T00:01:25;98251.16;;;10.92;82.38
4576;BME280;2300;51.874;8.430;2023-03-14T00:03:51;98269.00;;;10.89;82.37
4576;BME280;2300;51.874;8.430;2023-03-14T00:06:18;98277.88;;;10.81;82.67
4576;BME280;2300;51.874;8.430;2023-03-14T00:08:45;98288.66;;;10.77;82.82
4576;BME280;2300;51.874;8.430;2023-03-14T00:11:13;98277.53;;;10.64;82.99
4576;BME280;2300;51.874;8.430;2023-03-14T00:13:41;98281.31;;;10.68;82.58
4576;BME280;2300;51.874;8.430;2023-03-14T00:16:10;98288.69;;;10.72;82.70
4576;BME280;2300;51.874;8.430;2023-03-14T00:18:38;98280.53;;;10.67;82.42
4576;BME280;2300;51.874;8.430;2023-03-14T00:21:07;98272.03;;;10.64;83.03
4576;BME280;2300;51.874;8.430;2023-03-14T00:23:35;98275.88;;;10.63;82.75
4576;BME280;2300;51.874;8.430;2023-03-14T00:26:04;98299.00;;;10.57;83.12
4576;BME280;2300;51.874;8.430;2023-03-14T00:28:31;98296.88;;;10.49;82.91
4576;BME280;2300;51.874;8.430;2023-03-14T00:31:05;98300.69;;;10.53;83.42
4576;BME280;2300;51.874;8.430;2023-03-14T00:33:32;98291.72;;;10.42;83.26
4576;BME280;2300;51.874;8.430;2023-03-14T00:36:02;98289.28;;;10.40;83.24
4576;BME280;2300;51.874;8.430;2023-03-14T00:38:30;98298.03;;;10.42;83.73
4576;BME280;2300;51.874;8.430;2023-03-14T00:40:58;98290.00;;;10.51;83.28
4576;BME280;2300;51.874;8.430;2023-03-14T00:43:24;98266.66;;;10.54;83.07
4576;BME280;2300;51.874;8.430;2023-03-14T00:45:52;98267.09;;;10.66;82.93
4576;BME280;2300;51.874;8.430;2023-03-14T00:48:19;98250.84;;;10.69;82.21
4576;BME280;2300;51.874;8.430;2023-03-14T00:50:46;98242.25;;;10.76;82.30
4576;BME280;2300;51.874;8.430;2023-03-14T00:53:15;98261.69;;;10.79;82.01
4576;BME280;2300;51.874;8.430;2023-03-14T00:55:42;98274.03;;;10.82;82.04
4576;BME280;2300;51.874;8.430;2023-03-14T00:58:09;98269.94;;;10.79;81.98
4576;BME280;2300;51.874;8.430;2023-03-14T01:00:35;98280.53;;;10.91;81.43
4576;BME280;2300;51.874;8.430;2023-03-14T01:03:02;98283.88;;;10.88;81.62
4576;BME280;2300;51.874;8.430;2023-03-14T01:05:29;98290.13;;;10.89;81.56
4576;BME280;2300;51.874;8.430;2023-03-14T01:07:56;98286.06;;;10.86;81.32
4576;BME280;2300;51.874;8.430;2023-03-14T01:10:23;98271.69;;;10.94;81.05
4576;BME280;2300;51.874;8.430;2023-03-14T01:12:50;98265.75;;;10.87;81.04
4576;BME280;2300;51.874;8.430;2023-03-14T01:15:17;98260.19;;;10.92;81.29
4576;BME280;2300;51.874;8.430;2023-03-14T01:17:43;98250.91;;;10.88;81.01
4576;BME280;2300;51.874;8.430;2023-03-14T01:20:11;98247.28;;;10.93;80.73
4576;BME280;2300;51.874;8.430;2023-03-14T01:22:39;98246.81;;;10.85;80.94
4576;BME280;2300;51.874;8.430;2023-03-14T01:25:07;98216.56;;;10.91;80.89
4576;BME280;2300;51.874;8.430;2023-03-14T01:27:35;98225.69;;;10.86;81.14
4576;BME280;2300;51.874;8.430;2023-03-14T01:30:02;98209.03;;;10.77;80.88
4576;BME280;2300;51.874;8.430;2023-03-14T01:32:28;98202.19;;;10.75;81.32
4576;BME280;2300;51.874;8.430;2023-03-14T01:34:55;98220.81;;;10.78;81.05
4576;BME280;2300;51.874;8.430;2023-03-14T01:37:21;98224.97;;;10.75;81.02
4576;BME280;2300;51.874;8.430;2023-03-14T01:39:48;98233.97;;;10.81;81.06
4576;BME280;2300;51.874;8.430;2023-03-14T01:42:15;98229.81;;;10.83;80.94
4576;BME280;2300;51.874;8.430;2023-03-14T01:44:51;98228.34;;;10.91;80.74
4576;BME280;2300;51.874;8.430;2023-03-14T01:47:18;98229.19;;;10.92;80.42
4576;BME280;2300;51.874;8.430;2023-03-14T01:49:46;98222.88;;;10.91;80.28
4576;BME280;2300;51.874;8.430;2023-03-14T01:52:14;98227.25;;;10.92;79.97
4576;BME280;2300;51.874;8.430;2023-03-14T01:54:44;98225.78;;;11.00;79.73
4576;BME280;2300;51.874;8.430;2023-03-14T01:57:15;98224.13;;;10.99;80.00
4576;BME280;2300;51.874;8.430;2023-03-14T01:59:46;98217.25;;;11.01;79.61
4576;BME280;2300;51.874;8.430;2023-03-14T02:02:17;98207.38;;;11.00;79.61
4576;BME280;2300;51.874;8.430;2023-03-14T02:04:43;98193.88;;;11.04;79.54
4576;BME280;2300;51.874;8.430;2023-03-14T02:07:12;98188.16;;;11.00;79.48
4576;BME280;2300;51.874;8.430;2023-03-14T02:09:41;98166.44;;;10.80;79.47
4576;BME280;2300;51.874;8.430;2023-03-14T02:12:09;98196.84;;;11.07;79.21
4576;BME280;2300;51.874;8.430;2023-03-14T02:14:36;98192.09;;;11.13;79.05
4576;BME280;2300;51.874;8.430;2023-03-14T02:17:05;98192.41;;;11.11;79.18
4576;BME280;2300;51.874;8.430;2023-03-14T02:19:48;98216.91;;;11.08;81.20
4576;BME280;2300;51.874;8.430;2023-03-14T02:22:16;98247.75;;;10.76;85.31
4576;BME280;2300;51.874;8.430;2023-03-14T02:24:46;98283.66;;;10.22;90.89
4576;BME280;2300;51.874;8.430;2023-03-14T02:27:17;98284.78;;;9.43;92.54
4576;BME280;2300;51.874;8.430;2023-03-14T02:29:49;98273.94;;;9.12;96.07
4576;BME280;2300;51.874;8.430;2023-03-14T02:32:18;98257.13;;;8.80;96.97
4576;BME280;2300;51.874;8.430;2023-03-14T02:34:47;98241.81;;;8.64;97.96
4576;BME280;2300;51.874;8.430;2023-03-14T02:37:17;98248.66;;;8.56;99.06
4576;BME280;2300;51.874;8.430;2023-03-14T02:39:46;98245.44;;;8.49;98.63
4576;BME280;2300;51.874;8.430;2023-03-14T02:42:14;98244.34;;;8.40;98.05
4576;BME280;2300;51.874;8.430;2023-03-14T02:44:53;98242.69;;;8.49;97.72
4576;BME280;2300;51.874;8.430;2023-03-14T02:47:27;98229.00;;;8.54;97.66
4576;BME280;2300;51.874;8.430;2023-03-14T02:50:00;98230.59;;;8.60;98.46
4576;BME280;2300;51.874;8.430;2023-03-14T02:52:27;98227.63;;;8.57;98.92
4576;BME280;2300;51.874;8.430;2023-03-14T02:54:54;98230.06;;;8.63;98.66
4576;BME280;2300;51.874;8.430;2023-03-14T02:57:21;98228.44;;;8.67;99.12
4576;BME280;2300;51.874;8.430;2023-03-14T02:59:47;98231.41;;;8.71;98.54
4576;BME280;2300;51.874;8.430;2023-03-14T03:02:15;98227.34;;;8.68;98.67
4576;BME280;2300;51.874;8.430;2023-03-14T03:04:42;98229.50;;;8.61;97.04
4576;BME280;2300;51.874;8.430;2023-03-14T03:07:08;98230.31;;;8.62;96.50
4576;BME280;2300;51.874;8.430;2023-03-14T03:09:35;98226.78;;;8.56;95.39
4576;BME280;2300;51.874;8.430;2023-03-14T03:12:01;98234.50;;;8.39;94.84
4576;BME280;2300;51.874;8.430;2023-03-14T03:14:27;98226.03;;;8.36;94.90
4576;BME280;2300;51.874;8.430;2023-03-14T03:16:54;98221.41;;;8.26;95.38
4576;BME280;2300;51.874;8.430;2023-03-14T03:19:22;98222.25;;;8.16;95.59
4576;BME280;2300;51.874;8.430;2023-03-14T03:21:48;98211.28;;;8.21;95.59
4576;BME280;2300;51.874;8.430;2023-03-14T03:24:15;98208.28;;;8.28;95.34
4576;BME280;2300;51.874;8.430;2023-03-14T03:26:41;98210.44;;;8.31;95.26
4576;BME280;2300;51.874;8.430;2023-03-14T03:29:08;98212.09;;;8.27;94.79
4576;BME280;2300;51.874;8.430;2023-03-14T03:31:36;98195.97;;;8.20;95.16
4576;BME280;2300;51.874;8.430;2023-03-14T03:34:03;98214.00;;;8.31;94.86
4576;BME280;2300;51.874;8.430;2023-03-14T03:36:31;98218.91;;;8.35;94.90
4576;BME280;2300;51.874;8.430;2023-03-14T03:38:57;98214.25;;;8.35;95.04
4576;BME280;2300;51.874;8.430;2023-03-14T03:41:23;98220.84;;;8.34;94.92
4576;BME280;2300;51.874;8.430;2023-03-14T03:43:50;98209.91;;;8.39;94.87
4576;BME280;2300;51.874;8.430;2023-03-14T03:46:16;98215.63;;;8.43;94.79
4576;BME280;2300;51.874;8.430;2023-03-14T03:48:43;98218.09;;;8.44;95.61
4576;BME280;2300;51.874;8.430;2023-03-14T03:51:12;98215.88;;;8.46;95.15
4576;BME280;2300;51.874;8.430;2023-03-14T03:53:40;98233.38;;;8.50;95.72
4576;BME280;2300;51.874;8.430;2023-03-14T03:56:08;98224.38;;;8.50;96.13
4576;BME280;2300;51.874;8.430;2023-03-14T03:58:35;98229.84;;;8.50;96.50
4576;BME280;2300;51.874;8.430;2023-03-14T04:01:04;98213.69;;;8.53;96.53
4576;BME280;2300;51.874;8.430;2023-03-14T04:03:31;98213.94;;;8.52;96.46
4576;BME280;2300;51.874;8.430;2023-03-14T04:05:58;98214.78;;;8.52;96.30
4576;BME280;2300;51.874;8.430;2023-03-14T04:08:24;98211.50;;;8.40;96.91
4576;BME280;2300;51.874;8.430;2023-03-14T04:10:55;98209.91;;;8.39;96.72
4576;BME280;2300;51.874;8.430;2023-03-14T04:13:22;98206.06;;;8.30;96.73
4576;BME280;2300;51.874;8.430;2023-03-14T04:15:48;98180.44;;;8.11;97.31
4576;BME280;2300;51.874;8.430;2023-03-14T04:18:15;98205.00;;;8.26;96.62
4576;BME280;2300;51.874;8.430;2023-03-14T04:20:42;98180.44;;;8.11;97.08
4576;BME280;2300;51.874;8.430;2023-03-14T04:23:08;98206.63;;;8.27;97.31
4576;BME280;2300;51.874;8.430;2023-03-14T04:25:35;98198.97;;;8.34;97.04
4576;BME280;2300;51.874;8.430;2023-03-14T04:28:03;98187.72;;;8.41;96.53
4576;BME280;2300;51.874;8.430;2023-03-14T04:30:29;98179.81;;;8.44;95.96
4576;BME280;2300;51.874;8.430;2023-03-14T04:32:56;98185.00;;;8.41;96.15
4576;BME280;2300;51.874;8.430;2023-03-14T04:35:22;98182.25;;;8.41;96.07
4576;BME280;2300;51.874;8.430;2023-03-14T04:37:49;98183.09;;;8.36;96.16
4576;BME280;2300;51.874;8.430;2023-03-14T04:40:17;98177.09;;;8.39;96.16
4576;BME280;2300;51.874;8.430;2023-03-14T04:42:43;98178.19;;;8.33;96.14
4576;BME280;2300;51.874;8.430;2023-03-14T04:45:11;98174.63;;;8.38;95.75
4576;BME280;2300;51.874;8.430;2023-03-14T04:47:38;98192.38;;;8.35;95.69
4576;BME280;2300;51.874;8.430;2023-03-14T04:50:05;98180.63;;;8.35;95.72
4576;BME280;2300;51.874;8.430;2023-03-14T04:52:31;98176.84;;;8.25;95.98
4576;BME280;2300;51.874;8.430;2023-03-14T04:54:58;98167.56;;;8.21;96.25
4576;BME280;2300;51.874;8.430;2023-03-14T04:57:24;98165.63;;;8.27;96.73
4576;BME280;2300;51.874;8.430;2023-03-14T04:59:51;98157.19;;;8.23;96.66
4576;BME280;2300;51.874;8.430;2023-03-14T05:02:18;98155.78;;;8.26;96.98
4576;BME280;2300;51.874;8.430;2023-03-14T05:04:45;98147.31;;;8.27;96.55
4576;BME280;2300;51.874;8.430;2023-03-14T05:07:11;98159.31;;;8.31;96.65
4576;BME280;2300;51.874;8.430;2023-03-14T05:09:38;98145.94;;;8.30;97.48
4576;BME280;2300;51.874;8.430;2023-03-14T05:12:04;98153.59;;;8.28;97.14
4576;BME280;2300;51.874;8.430;2023-03-14T05:14:31;98155.25;;;8.29;97.20
4576;BME280;2300;51.874;8.430;2023-03-14T05:16:57;98147.56;;;8.31;97.15
4576;BME280;2300;51.874;8.430;2023-03-14T05:19:25;98153.59;;;8.33;97.02
4576;BME280;2300;51.874;8.430;2023-03-14T05:21:51;98146.47;;;8.32;97.50
4576;BME280;2300;51.874;8.430;2023-03-14T05:24:18;98154.06;;;8.45;97.39
4576;BME280;2300;51.874;8.430;2023-03-14T05:26:44;98139.06;;;8.43;97.07
4576;BME280;2300;51.874;8.430;2023-03-14T05:29:11;98150.28;;;8.36;96.84
4576;BME280;2300;51.874;8.430;2023-03-14T05:31:37;98148.09;;;8.38;96.74
4576;BME280;2300;51.874;8.430;2023-03-14T05:34:04;98140.97;;;8.42;96.55
4576;BME280;2300;51.874;8.430;2023-03-14T05:36:32;98136.56;;;8.46;97.28
4576;BME280;2300;51.874;8.430;2023-03-14T05:38:59;98139.59;;;8.40;96.94
4576;BME280;2300;51.874;8.430;2023-03-14T05:41:25;98137.69;;;8.40;96.13
4576;BME280;2300;51.874;8.430;2023-03-14T05:43:52;98137.41;;;8.42;97.06
4576;BME280;2300;51.874;8.430;2023-03-14T05:46:18;98137.97;;;8.44;96.74
4576;BME280;2300;51.874;8.430;2023-03-14T05:48:45;98129.22;;;8.37;96.97
4576;BME280;2300;51.874;8.430;2023-03-14T05:51:12;98137.19;;;8.33;98.14
4576;BME280;2300;51.874;8.430;2023-03-14T05:53:40;98139.63;;;8.29;97.35
4576;BME280;2300;51.874;8.430;2023-03-14T05:56:08;98124.91;;;8.20;98.20
4576;BME280;2300;51.874;8.430;2023-03-14T05:58:34;98130.63;;;8.29;98.58
4576;BME280;2300;51.874;8.430;2023-03-14T06:01:02;98131.19;;;8.21;99.32
4576;BME280;2300;51.874;8.430;2023-03-14T06:03:29;98129.56;;;8.20;99.69
4576;BME280;2300;51.874;8.430;2023-03-14T06:05:55;98127.66;;;8.15;99.67
4576;BME280;2300;51.874;8.430;2023-03-14T06:08:22;98128.47;;;8.21;99.41
4576;BME280;2300;51.874;8.430;2023-03-14T06:10:49;98131.75;;;8.18;98.71
4576;BME280;2300;51.874;8.430;2023-03-14T06:13:16;98128.19;;;8.22;99.58
4576;BME280;2300;51.874;8.430;2023-03-14T06:15:43;98115.34;;;8.23;99.87
4576;BME280;2300;51.874;8.430;2023-03-14T06:18:10;98121.09;;;8.21;99.55
4576;BME280;2300;51.874;8.430;2023-03-14T06:20:38;98157.19;;;8.13;100.00
4576;BME280;2300;51.874;8.430;2023-03-14T06:23:05;98149.78;;;8.14;100.00
4576;BME280;2300;51.874;8.430;2023-03-14T06:25:32;98119.78;;;7.88;100.00
4576;BME280;2300;51.874;8.430;2023-03-14T06:28:00;98141.94;;;7.87;100.00
4576;BME280;2300;51.874;8.430;2023-03-14T06:30:27;98143.84;;;7.97;100.00
4576;BME280;2300;51.874;8.430;2023-03-14T06:32:53;98146.28;;;7.93;100.00
4576;BME280;2300;51.874;8.430;2023-03-14T06:35:20;98149.84;;;7.83;100.00
4576;BME280;2300;51.874;8.430;2023-03-14T06:37:47;98149.28;;;8.02;100.00
4576;BME280;2300;51.874;8.430;2023-03-14T06:40:13;98146.56;;;7.97;100.00
4576;BME280;2300;51.874;8.430;2023-03-14T06:42:43;98141.63;;;8.04;100.00
4576;BME280;2300;51.874;8.430;2023-03-14T06:45:11;98138.84;;;8.19;100.00
4576;BME280;2300;51.874;8.430;2023-03-14T06:47:37;98136.94;;;8.19;100.00
4576;BME280;2300;51.874;8.430;2023-03-14T06:50:05;98137.50;;;8.21;100.00
4576;BME280;2300;51.874;8.430;2023-03-14T06:52:31;98135.88;;;8.10;100.00
4576;BME280;2300;51.874;8.430;2023-03-14T06:54:58;98136.69;;;8.11;100.00
4576;BME280;2300;51.874;8.430;2023-03-14T06:57:25;98127.41;;;8.12;100.00
4576;BME280;2300;51.874;8.430;2023-03-14T06:59:51;98136.13;;;8.24;100.00
4576;BME280;2300;51.874;8.430;2023-03-14T07:02:19;98141.56;;;8.19;100.00
4576;BME280;2300;51.874;8.430;2023-03-14T07:04:47;98141.09;;;8.07;100.00
4576;BME280;2300;51.874;8.430;2023-03-14T07:07:13;98137.78;;;8.15;100.00
4576;BME280;2300;51.874;8.430;2023-03-14T07:09:41;98133.97;;;8.06;100.00
4576;BME280;2300;51.874;8.430;2023-03-14T07:12:08;98139.16;;;8.12;100.00
4576;BME280;2300;51.874;8.430;2023-03-14T07:14:34;98135.03;;;8.15;100.00
4576;BME280;2300;51.874;8.430;2023-03-14T07:17:01;98130.41;;;8.10;100.00
4576;BME280;2300;51.874;8.430;2023-03-14T07:19:29;98137.19;;;8.33;100.00
4576;BME280;2300;51.874;8.430;2023-03-14T07:21:55;98114.47;;;8.38;100.00
4576;BME280;2300;51.874;8.430;2023-03-14T07:24:22;98141.44;;;8.64;100.00
4576;BME280;2300;51.874;8.430;2023-03-14T07:26:49;98139.72;;;8.84;100.00
4576;BME280;2300;51.874;8.430;2023-03-14T07:29:15;98136.97;;;8.84;100.00
4576;BME280;2300;51.874;8.430;2023-03-14T07:31:42;98142.91;;;9.01;100.00
4576;BME280;2300;51.874;8.430;2023-03-14T07:34:08;98139.66;;;8.94;100.00
4576;BME280;2300;51.874;8.430;2023-03-14T07:36:36;98141.34;;;8.85;100.00
4576;BME280;2300;51.874;8.430;2023-03-14T07:39:02;98147.72;;;8.75;100.00
4576;BME280;2300;51.874;8.430;2023-03-14T07:41:30;98150.66;;;8.84;100.00
4576;BME280;2300;51.874;8.430;2023-03-14T07:43:56;98150.09;;;8.87;100.00
4576;BME280;2300;51.874;8.430;2023-03-14T07:46:22;98136.75;;;8.80;100.00
4576;BME280;2300;51.874;8.430;2023-03-14T07:48:49;98154.50;;;8.83;100.00
4576;BME280;2300;51.874;8.430;2023-03-14T07:51:15;98142.19;;;8.85;100.00
4576;BME280;2300;51.874;8.430;2023-03-14T07:53:43;98139.41;;;8.90;100.00
4576;BME280;2300;51.874;8.430;2023-03-14T07:56:10;98142.19;;;8.85;100.00
4576;BME280;2300;51.874;8.430;2023-03-14T07:58:37;98136.66;;;8.95;100.00
4576;BME280;2300;51.874;8.430;2023-03-14T08:01:04;98143.88;;;9.20;100.00
4576;BME280;2300;51.874;8.430;2023-03-14T08:03:30;98140.19;;;9.35;100.00
4576;BME280;2300;51.874;8.430;2023-03-14T08:05:57;98151.31;;;9.48;100.00
4576;BME280;2300;51.874;8.430;2023-03-14T08:08:23;98149.44;;;9.44;100.00
4576;BME280;2300;51.874;8.430;2023-03-14T08:10:51;98144.53;;;9.41;100.00
4576;BME280;2300;51.874;8.430;2023-03-14T08:13:17;98145.56;;;9.50;100.00
4576;BME280;2300;51.874;8.430;2023-03-14T08:15:47;98145.38;;;9.70;100.00
4576;BME280;2300;51.874;8.430;2023-03-14T08:18:14;98149.22;;;9.69;100.00
4576;BME280;2300;51.874;8.430;2023-03-14T08:20:40;98148.94;;;9.71;100.00
4576;BME280;2300;51.874;8.430;2023-03-14T08:23:07;98158.34;;;9.59;100.00
4576;BME280;2300;51.874;8.430;2023-03-14T08:25:33;98154.75;;;9.64;100.00
4576;BME280;2300;51.874;8.430;2023-03-14T08:28:01;98160.97;;;9.75;100.00
4576;BME280;2300;51.874;8.430;2023-03-14T08:30:27;98158.31;;;9.65;100.00
4576;BME280;2300;51.874;8.430;2023-03-14T08:32:56;98154.69;;;9.74;100.00
4576;BME280;2300;51.874;8.430;2023-03-14T08:35:22;98162.06;;;9.79;100.00
4576;BME280;2300;51.874;8.430;2023-03-14T08:37:49;98162.88;;;9.79;100.00
4576;BME280;2300;51.874;8.430;2023-03-14T08:40:17;98161.47;;;9.82;100.00
4576;BME280;2300;51.874;8.430;2023-03-14T08:42:44;98154.88;;;9.83;99.80
4576;BME280;2300;51.874;8.430;2023-03-14T08:45:14;98168.91;;;9.76;99.21
4576;BME280;2300;51.874;8.430;2023-03-14T08:47:41;98158.66;;;9.87;98.88
4576;BME280;2300;51.874;8.430;2023-03-14T08:50:10;98159.41;;;9.69;99.00
4576;BME280;2300;51.874;8.430;2023-03-14T08:52:36;98160.41;;;9.78;99.30
4576;BME280;2300;51.874;8.430;2023-03-14T08:55:06;98157.53;;;9.93;99.38
4576;BME280;2300;51.874;8.430;2023-03-14T08:57:33;98158.97;;;10.14;99.05
4576;BME280;2300;51.874;8.430;2023-03-14T08:59:59;98159.88;;;10.33;98.18
4576;BME280;2300;51.874;8.430;2023-03-14T09:02:27;98162.16;;;10.50;97.24
4576;BME280;2300;51.874;8.430;2023-03-14T09:04:53;98158.53;;;10.55;96.96
4576;BME280;2300;51.874;8.430;2023-03-14T09:07:20;98155.97;;;10.63;96.32
4576;BME280;2300;51.874;8.430;2023-03-14T09:09:46;98160.97;;;10.80;95.63
4576;BME280;2300;51.874;8.430;2023-03-14T09:12:13;98158.34;;;11.12;94.89
4576;BME280;2300;51.874;8.430;2023-03-14T09:14:40;98148.84;;;11.23;93.17
4576;BME280;2300;51.874;8.430;2023-03-14T09:17:06;98154.59;;;11.59;92.00
4576;BME280;2300;51.874;8.430;2023-03-14T09:19:34;98153.66;;;11.69;90.61
4576;BME280;2300;51.874;8.430;2023-03-14T09:22:01;98155.41;;;11.60;90.45
4576;BME280;2300;51.874;8.430;2023-03-14T09:24:28;98155.00;;;11.34;91.61
4576;BME280;2300;51.874;8.430;2023-03-14T09:26:54;98161.44;;;11.06;92.93
4576;BME280;2300;51.874;8.430;2023-03-14T09:29:21;98158.31;;;10.94;93.43
4576;BME280;2300;51.874;8.430;2023-03-14T09:31:48;98160.69;;;11.00;94.71
4576;BME280;2300;51.874;8.430;2023-03-14T09:34:14;98161.50;;;11.19;94.45
4576;BME280;2300;51.874;8.430;2023-03-14T09:36:42;98166.25;;;11.51;93.76
4576;BME280;2300;51.874;8.430;2023-03-14T09:39:09;98163.75;;;11.55;92.29
4576;BME280;2300;51.874;8.430;2023-03-14T09:41:37;98169.03;;;11.33;92.57
4576;BME280;2300;51.874;8.430;2023-03-14T09:44:10;98163.75;;;11.36;93.18
4576;BME280;2300;51.874;8.430;2023-03-14T09:46:39;98173.03;;;11.59;93.39
4576;BME280;2300;51.874;8.430;2023-03-14T09:49:11;98171.78;;;11.70;93.10
4576;BME280;2300;51.874;8.430;2023-03-14T09:51:39;98169.75;;;11.57;92.20
4576;BME280;2300;51.874;8.430;2023-03-14T09:54:21;98174.00;;;11.31;91.96
4576;BME280;2300;51.874;8.430;2023-03-14T09:56:51;98180.16;;;11.22;93.59
4576;BME280;2300;51.874;8.430;2023-03-14T09:59:18;98175.03;;;11.16;94.74
4576;BME280;2300;51.874;8.430;2023-03-14T10:01:44;98172.03;;;10.94;95.63
4576;BME280;2300;51.874;8.430;2023-03-14T10:04:15;98181.47;;;11.06;96.20
4576;BME280;2300;51.874;8.430;2023-03-14T10:06:43;98177.16;;;11.00;96.42
4576;BME280;2300;51.874;8.430;2023-03-14T10:09:15;98178.81;;;11.01;96.99
4576;BME280;2300;51.874;8.430;2023-03-14T10:11:44;98184.91;;;10.98;96.94
4576;BME280;2300;51.874;8.430;2023-03-14T10:14:11;98190.63;;;10.78;96.59
4576;BME280;2300;51.874;8.430;2023-03-14T10:16:41;98187.84;;;10.59;98.55
4576;BME280;2300;51.874;8.430;2023-03-14T10:19:11;98193.66;;;10.53;100.00
4576;BME280;2300;51.874;8.430;2023-03-14T10:21:39;98192.56;;;10.54;100.00
4576;BME280;2300;51.874;8.430;2023-03-14T10:24:17;98197.06;;;10.45;100.00
4576;BME280;2300;51.874;8.430;2023-03-14T10:26:47;98206.50;;;10.33;100.00
4576;BME280;2300;51.874;8.430;2023-03-14T10:29:15;98204.19;;;10.46;100.00
4576;BME280;2300;51.874;8.430;2023-03-14T10:31:51;98201.56;;;10.35;100.00
4576;BME280;2300;51.874;8.430;2023-03-14T10:34:24;98218.69;;;10.17;100.00
4576;BME280;2300;51.874;8.430;2023-03-14T10:36:55;98214.91;;;10.13;100.00
4576;BME280;2300;51.874;8.430;2023-03-14T10:39:27;98223.94;;;10.14;100.00
4576;BME280;2300;51.874;8.430;2023-03-14T10:42:02;98258.81;;;10.08;100.00
4576;BME280;2300;51.874;8.430;2023-03-14T10:44:30;98309.31;;;9.63;100.00
4576;BME280;2300;51.874;8.430;2023-03-14T10:47:00;98316.53;;;8.69;100.00
4576;BME280;2300;51.874;8.430;2023-03-14T10:49:29;98330.22;;;8.34;100.00
4576;BME280;2300;51.874;8.430;2023-03-14T10:52:01;98337.03;;;8.06;100.00
4576;BME280;2300;51.874;8.430;2023-03-14T10:54:30;98347.16;;;8.11;100.00
4576;BME280;2300;51.874;8.430;2023-03-14T10:56:57;98346.03;;;7.76;100.00
4576;BME280;2300;51.874;8.430;2023-03-14T10:59:26;98353.66;;;7.69;100.00
4576;BME280;2300;51.874;8.430;2023-03-14T11:01:57;98365.13;;;7.66;100.00
4576;BME280;2300;51.874;8.430;2023-03-14T11:04:37;98371.13;;;7.68;100.00
4576;BME280;2300;51.874;8.430;2023-03-14T11:07:10;98380.38;;;7.62;100.00
4576;BME280;2300;51.874;8.430;2023-03-14T11:09:45;98389.72;;;7.66;100.00
4576;BME280;2300;51.874;8.430;2023-03-14T11:12:28;98403.34;;;7.61;100.00
4576;BME280;2300;51.874;8.430;2023-03-14T11:15:02;98413.66;;;7.49;100.00
4576;BME280;2300;51.874;8.430;2023-03-14T11:17:34;98435.19;;;7.35;100.00
4576;BME280;2300;51.874;8.430;2023-03-14T11:20:17;98451.78;;;7.29;100.00
4576;BME280;2300;51.874;8.430;2023-03-14T11:22:55;98472.75;;;7.18;100.00
4576;BME280;2300;51.874;8.430;2023-03-14T11:25:31;98489.13;;;6.81;99.25
4576;BME280;2300;51.874;8.430;2023-03-14T11:28:08;98515.88;;;6.84;99.63
4576;BME280;2300;51.874;8.430;2023-03-14T11:30:39;98519.69;;;6.56;98.74
4576;BME280;2300;51.874;8.430;2023-03-14T11:33:13;98546.28;;;6.44;98.94
4576;BME280;2300;51.874;8.430;2023-03-14T11:35:45;98561.81;;;6.44;99.60
4576;BME280;2300;51.874;8.430;2023-03-14T11:38:19;98569.69;;;6.40;99.00
4576;BME280;2300;51.874;8.430;2023-03-14T11:40:54;98597.41;;;6.10;96.15
4576;BME280;2300;51.874;8.430;2023-03-14T11:43:27;98604.03;;;5.76;94.64
4576;BME280;2300;51.874;8.430;2023-03-14T11:46:00;98624.13;;;5.70;94.36
4576;BME280;2300;51.874;8.430;2023-03-14T11:48:35;98632.19;;;6.03;95.05
4576;BME280;2300;51.874;8.430;2023-03-14T11:51:08;98634.63;;;5.83;93.22
4576;BME280;2300;51.874;8.430;2023-03-14T11:53:45;98670.88;;;5.84;93.04
4576;BME280;2300;51.874;8.430;2023-03-14T11:56:21;98695.63;;;5.65;93.14
4576;BME280;2300;51.874;8.430;2023-03-14T11:58:55;98724.13;;;5.58;93.35
4576;BME280;2300;51.874;8.430;2023-03-14T12:01:29;98728.88;;;5.34;93.18
4576;BME280;2300;51.874;8.430;2023-03-14T12:04:04;98730.44;;;5.30;93.19
4576;BME280;2300;51.874;8.430;2023-03-14T12:06:35;98755.56;;;5.49;93.56
4576;BME280;2300;51.874;8.430;2023-03-14T12:09:05;98764.00;;;5.36;91.21
4576;BME280;2300;51.874;8.430;2023-03-14T12:11:38;98778.81;;;5.56;89.66
4576;BME280;2300;51.874;8.430;2023-03-14T12:14:18;98786.06;;;5.51;88.01
4576;BME280;2300;51.874;8.430;2023-03-14T12:16:46;98797.75;;;5.34;86.45
4576;BME280;2300;51.874;8.430;2023-03-14T12:19:24;98816.56;;;5.64;86.04
4576;BME280;2300;51.874;8.430;2023-03-14T12:21:53;98825.13;;;5.73;86.38
4576;BME280;2300;51.874;8.430;2023-03-14T12:24:23;98835.59;;;5.81;85.79
4576;BME280;2300;51.874;8.430;2023-03-14T12:26:54;98855.63;;;6.03;84.71
4576;BME280;2300;51.874;8.430;2023-03-14T12:29:21;98857.66;;;5.96;83.11
4576;BME280;2300;51.874;8.430;2023-03-14T12:31:49;98866.84;;;6.24;83.88
4576;BME280;2300;51.874;8.430;2023-03-14T12:34:32;98867.19;;;6.10;82.37
4576;BME280;2300;51.874;8.430;2023-03-14T12:37:06;98881.16;;;6.31;82.35
4576;BME280;2300;51.874;8.430;2023-03-14T12:39:44;98878.31;;;6.59;81.60
4576;BME280;2300;51.874;8.430;2023-03-14T12:42:18;98880.56;;;6.62;81.13
4576;BME280;2300;51.874;8.430;2023-03-14T12:44:47;98890.59;;;6.95;81.00
4576;BME280;2300;51.874;8.430;2023-03-14T12:47:49;98882.22;;;6.63;79.94
4576;BME280;2300;51.874;8.430;2023-03-14T12:50:24;98890.72;;;6.67;79.66
4576;BME280;2300;51.874;8.430;2023-03-14T12:55:44;98891.56;;;6.84;80.89
4576;BME280;2300;51.874;8.430;2023-03-14T12:58:17;98908.78;;;7.28;80.49
4576;BME280;2300;51.874;8.430;2023-03-14T13:00:54;98915.03;;;7.45;80.44
4576;BME280;2300;51.874;8.430;2023-03-14T13:03:25;98928.47;;;7.30;78.11
4576;BME280;2300;51.874;8.430;2023-03-14T13:05:54;98927.91;;;6.89;77.81
4576;BME280;2300;51.874;8.430;2023-03-14T13:08:38;98946.09;;;6.67;78.96
4576;BME280;2300;51.874;8.430;2023-03-14T13:11:08;98947.16;;;6.66;79.64
4576;BME280;2300;51.874;8.430;2023-03-14T13:13:42;98956.84;;;6.57;79.25
4576;BME280;2300;51.874;8.430;2023-03-14T13:16:15;98953.59;;;6.27;79.56
4576;BME280;2300;51.874;8.430;2023-03-14T13:18:44;98956.06;;;6.28;81.18
4576;BME280;2300;51.874;8.430;2023-03-14T13:21:13;98970.34;;;6.18;81.11
4576;BME280;2300;51.874;8.430;2023-03-14T13:23:54;98990.66;;;6.28;82.34
4576;BME280;2300;51.874;8.430;2023-03-14T13:26:21;99006.38;;;5.81;84.52
4576;BME280;2300;51.874;8.430;2023-03-14T13:28:50;99015.38;;;5.29;84.16
4576;BME280;2300;51.874;8.430;2023-03-14T13:31:22;99012.53;;;5.24;85.84
4576;BME280;2300;51.874;8.430;2023-03-14T13:33:57;99016.09;;;5.37;85.10
4576;BME280;2300;51.874;8.430;2023-03-14T13:36:23;99025.19;;;5.42;84.91
4576;BME280;2300;51.874;8.430;2023-03-14T13:38:56;99034.88;;;5.50;85.80